KMPV

Edward F Knapp State Airport

Barre/Montpelier, Vermont, USA
METAR KMPV 231151Z AUTO 00000KT 10SM SCT060 00/M01 A3011 RMK AO2 SLP208 T00001006 10039 20000 55001
Observed Flight Rules
Oct-23 @ 11:51 UTC (30 minutes ago) Visual Flight Rules
Visibility Clouds
10 miles
  • Scattered at 6,000' AGL
Temperatures Readings
Current 0°C / 32°F
Dewpoint -1°C / 30°F
Humidity 93%
Altimeter 30.11" Hg
Pressure 1020.8 hPa
Elevation 343
METAR KMPV 231151Z AUTO 00000KT 10SM SCT060 00/M01 A3011 RMK AO2 SLP208 T00001006 10039 20000 55001
Observed Flight Rules
Oct-23 @ 11:51 UTC
(30 minutes ago)
VFR
Clouds
  • Scattered at 6,000' AGL
Temperature Dewpoint
0°C / 32°F -1°C / 30°F
Humidity Altimeter Pressure
93% 30.11" Hg 1020.8 hPa